Time;durP1;ratioP1;P1;durP2;ratioP2;P2;SDS_P1;SDS_P2;PMS_P1;PMS_P2;Temp;Humidity;BMP_temperature;BMP_pressure;BME280_temperature;BME280_humidity;BME280_pressure;Samples;Min_cycle;Max_cycle;Signal;HPM_P1;HPM_P2
2022/06/15 00:00:43;;;;;;;5.53;2.83;;;;;;;17.26;nan;100900.91;5054649;28;20487;-68
2022/06/15 00:03:09;;;;;;;7.70;2.75;;;;;;;17.15;nan;100890.19;5054278;28;20052;-68
2022/06/15 00:05:34;;;;;;;8.57;2.85;;;;;;;17.05;nan;100900.78;5054574;28;20116;-68
2022/06/15 00:08:00;;;;;;;6.93;2.97;;;;;;;16.93;nan;100873.56;5054409;28;20079;-68
2022/06/15 00:10:25;;;;;;;6.57;2.78;;;;;;;;;;5053811;28;20029;-68
2022/06/15 00:12:50;;;;;;;5.77;2.63;;;;;;;;;;5052348;28;20102;-68
2022/06/15 00:15:16;;;;;;;7.57;2.63;;;;;;;;;;5035925;28;20040;-68
2022/06/15 00:17:41;;;;;;;6.20;3.50;;;;;;;;;;5036179;28;20410;-68
2022/06/15 00:20:07;;;;;;;5.77;2.67;;;;;;;;;;5053109;28;20505;-68
2022/06/15 00:22:32;;;;;;;5.13;3.03;;;;;;;;;;5053713;28;20258;-68
2022/06/15 00:24:57;;;;;;;6.53;3.03;;;;;;;;;;5053952;28;20028;-68
2022/06/15 00:27:23;;;;;;;6.70;3.00;;;;;;;;;;5053280;28;20033;-68
2022/06/15 00:29:48;;;;;;;7.57;3.00;;;;;;;;;;5054109;28;20262;-68
2022/06/15 00:32:13;;;;;;;5.13;2.70;;;;;;;;;;5053840;28;20104;-68
2022/06/15 00:34:38;;;;;;;7.10;2.90;;;;;;;;;;5053829;28;20608;-68
2022/06/15 00:37:05;;;;;;;6.63;2.70;;;;;;;;;;5053979;28;20069;-69
2022/06/15 00:39:32;;;;;;;7.65;3.00;;;;;;;15.78;nan;100898.47;5035705;28;20258;-68
2022/06/15 00:41:58;;;;;;;10.00;3.55;;;;;;;;;;5053177;28;20033;-68
2022/06/15 00:44:26;;;;;;;7.43;3.38;;;;;;;;;;5053248;28;20078;-68
2022/06/15 00:46:52;;;;;;;8.85;3.22;;;;;;;;;;5053781;28;20041;-67
2022/06/15 00:49:36;;;;;;;8.67;2.90;;;;;;;;;;5053725;28;20387;-68
2022/06/15 00:52:09;;;;;;;6.57;3.13;;;;;;;;;;5053611;28;20036;-67
2022/06/15 00:54:35;;;;;;;7.55;2.92;;;;;;;;;;5053194;28;20125;-67
2022/06/15 00:57:01;;;;;;;6.30;2.90;;;;;;;;;;5053456;28;20120;-67
2022/06/15 00:59:40;;;;;;;8.95;3.25;;;;;;;;;;5035437;28;20154;-68
2022/06/15 01:02:06;;;;;;;9.68;3.25;;;;;;;;;;5053353;28;20043;-68
2022/06/15 01:04:37;;;;;;;7.65;3.03;;;;;;;;;;5037850;28;20179;-68
2022/06/15 01:07:21;;;;;;;6.72;2.95;;;;;;;;;;5032791;28;20037;-68
2022/06/15 01:10:10;;;;;;;7.55;3.20;;;;;;;;;;5033368;28;20045;-68
2022/06/15 01:12:53;;;;;;;7.85;3.25;;;;;;;;;;4952617;28;20051;-68
2022/06/15 01:15:30;;;;;;;8.57;3.13;;;;;;;;;;4952921;29;20134;-67
2022/06/15 01:18:07;;;;;;;6.80;3.20;;;;;;;;;;4952228;29;20581;-68
2022/06/15 01:20:36;;;;;;;6.82;3.05;;;;;;;;;;4969840;28;20061;-67
2022/06/15 01:23:11;;;;;;;6.43;3.40;;;;;;;;;;4970962;28;20039;-67
2022/06/15 01:25:52;;;;;;;6.25;2.97;;;;;;;;;;4971964;28;20046;-67
2022/06/15 01:28:23;;;;;;;8.57;3.40;;;;;;;;;;4955900;28;20125;-67
2022/06/15 01:31:01;;;;;;;7.47;3.45;;;;;;;;;;4971738;28;20288;-68
2022/06/15 01:33:50;;;;;;;5.80;3.28;;;;;;;;;;4971276;28;20039;-68
2022/06/15 01:36:52;;;;;;;8.33;3.00;;;;;;;15.79;nan;100952.38;4961558;28;20038;-67
2022/06/15 01:39:28;;;;;;;6.43;3.00;;;;;;;;;;4971846;28;20038;-68
2022/06/15 01:41:53;;;;;;;8.82;3.08;;;;;;;;;;4971685;28;20035;-68
2022/06/15 01:44:22;;;;;;;5.10;3.13;;;;;;;;;;4971242;28;20512;-68
2022/06/15 01:46:47;;;;;;;7.40;3.33;;;;;;;;;;4971796;28;20081;-68
2022/06/15 01:49:18;;;;;;;6.88;3.00;;;;;;;;;;4992684;28;20484;-68
2022/06/15 01:51:44;;;;;;;7.13;3.38;;;;;;;;;;5032909;28;20063;-68
2022/06/15 01:54:24;;;;;;;8.52;3.50;;;;;;;;;;5031607;28;20474;-68
2022/06/15 01:56:50;;;;;;;11.60;3.95;;;;;;;;;;5031218;28;20048;-68
2022/06/15 01:59:15;;;;;;;6.40;3.35;;;;;;;;;;5032765;28;20030;-68
2022/06/15 02:01:57;;;;;;;7.43;3.70;;;;;;;;;;5032723;28;20087;-68
2022/06/15 02:04:26;;;;;;;8.43;3.75;;;;;;;;;;5032334;28;20128;-68
2022/06/15 02:06:54;;;;;;;7.57;3.67;;;;;;;;;;5032211;28;20037;-68
2022/06/15 02:09:30;;;;;;;13.50;4.30;;;;;;;;;;5032205;28;20041;-68
2022/06/15 02:11:59;;;;;;;9.18;3.20;;;;;;;;;;5030974;28;20168;-68
2022/06/15 02:14:24;;;;;;;5.78;3.42;;;;;;;;;;5030813;28;20495;-68
2022/06/15 02:17:21;;;;;;;7.77;3.60;;;;;;;;;;5032573;28;20080;-68
2022/06/15 02:19:49;;;;;;;9.63;3.72;;;;;;;;;;4998677;28;20048;-68
2022/06/15 02:22:17;;;;;;;7.72;3.53;;;;;;;;;;5032295;28;20034;-68
2022/06/15 02:24:44;;;;;;;9.15;3.65;;;;;;;;;;5031524;28;20407;-68
2022/06/15 02:27:11;;;;;;;6.80;3.42;;;;;;;;;;5032546;28;20037;-68
2022/06/15 02:29:38;;;;;;;7.57;3.85;;;;;;;;;;5032412;28;20387;-69
2022/06/15 02:32:11;;;;;;;9.10;4.00;;;;;;;;;;5032477;28;20045;-68
2022/06/15 02:34:36;;;;;;;11.93;3.70;;;;;;;;;;5030711;28;20056;-68
2022/06/15 02:37:03;;;;;;;5.32;3.45;;;;;;;;;;5032346;28;20479;-67
2022/06/15 02:39:29;;;;;;;9.13;3.20;;;;;;;;;;5031981;28;20088;-68
2022/06/15 02:41:58;;;;;;;10.00;3.60;;;;;;;;;;5030756;28;20041;-68
2022/06/15 02:44:24;;;;;;;5.85;3.47;;;;;;;;;;5034480;28;20039;-68
2022/06/15 02:46:50;;;;;;;8.50;3.80;;;;;;;;;;5036195;28;20562;-68
2022/06/15 02:49:15;;;;;;;8.52;3.97;;;;;;;;;;5034583;28;20041;-68
2022/06/15 02:51:43;;;;;;;9.52;3.55;;;;;;;;;;5035973;28;20120;-68
2022/06/15 02:54:38;;;;;;;8.70;3.85;;;;;;;;;;5035338;28;20391;-70
2022/06/15 02:57:03;;;;;;;8.38;4.13;;;;;;;;;;5018158;28;20041;-69
2022/06/15 02:59:29;;;;;;;8.10;3.78;;;;;;;;;;5035596;28;20178;-67
2022/06/15 03:01:55;;;;;;;7.60;3.87;;;;;;;;;;5034364;28;20029;-69
2022/06/15 03:04:20;;;;;;;9.50;3.85;;;;;;;;;;5035445;28;20262;-67
2022/06/15 03:06:46;;;;;;;8.65;4.25;;;;;;;;;;5035654;28;20033;-67
2022/06/15 03:09:11;;;;;;;9.37;4.20;;;;;;;;;;5035591;28;20079;-67
2022/06/15 03:11:39;;;;;;;10.60;3.92;;;;;;;;;;5034043;28;20064;-70
2022/06/15 03:14:04;;;;;;;13.48;4.38;;;;;;;;;;5033940;28;20033;-67
2022/06/15 03:16:29;;;;;;;16.03;4.63;;;;;;;13.79;nan;100986.78;5035347;28;20030;-67
2022/06/15 03:18:55;;;;;;;11.10;4.07;;;;;;;13.71;nan;100981.81;5035528;28;20044;-66
2022/06/15 03:21:21;;;;;;;11.48;4.72;;;;;;;13.75;nan;100985.63;5035306;28;20065;-67
2022/06/15 03:23:46;;;;;;;9.32;4.72;;;;;;;13.70;nan;100990.81;5035122;28;20040;-67
2022/06/15 03:26:12;;;;;;;8.93;4.40;;;;;;;13.59;nan;100981.81;5035133;28;20029;-69
2022/06/15 03:28:37;;;;;;;12.93;4.57;;;;;;;13.58;nan;100982.06;5035464;28;20030;-67
2022/06/15 03:31:03;;;;;;;10.57;4.60;;;;;;;13.61;nan;100994.84;5035183;28;20026;-67
2022/06/15 03:33:29;;;;;;;9.18;4.10;;;;;;;13.63;nan;100987.47;5034981;28;20380;-69
2022/06/15 03:35:54;;;;;;;10.13;4.97;;;;;;;13.57;nan;100986.53;5035137;28;20037;-67
2022/06/15 03:38:19;;;;;;;9.50;4.40;;;;;;;13.70;nan;100996.09;5035084;28;20121;-67
2022/06/15 03:40:47;;;;;;;10.88;5.03;;;;;;;13.71;nan;100995.06;5034960;28;20041;-67
2022/06/15 03:43:14;;;;;;;10.60;4.78;;;;;;;13.73;nan;100994.84;5035005;28;20164;-68
2022/06/15 03:45:42;;;;;;;10.48;4.68;;;;;;;13.68;nan;100987.59;5034936;28;20033;-67
2022/06/15 03:48:08;;;;;;;9.45;4.70;;;;;;;13.75;nan;100998.88;5035017;28;20392;-67
2022/06/15 03:50:34;;;;;;;9.65;5.18;;;;;;;13.74;nan;101005.22;5033990;28;20040;-68
2022/06/15 03:53:01;;;;;;;10.82;5.38;;;;;;;13.68;nan;100995.53;5034836;28;20042;-68
2022/06/15 03:55:28;;;;;;;15.48;5.65;;;;;;;13.75;nan;101000.72;5034462;28;20464;-68
2022/06/15 03:57:54;;;;;;;11.35;5.00;;;;;;;13.85;nan;101008.06;5034915;28;20048;-68
2022/06/15 04:00:21;;;;;;;11.90;5.75;;;;;;;13.86;nan;101007.81;5033099;28;20044;-67
2022/06/15 04:02:47;;;;;;;15.65;5.70;;;;;;;13.84;nan;101009.91;5034694;28;20029;-68
2022/06/15 04:05:22;;;;;;;16.38;5.70;;;;;;;13.82;nan;101012.00;5034295;28;20035;-68
2022/06/15 04:10:32;;;;;;;13.40;5.47;;;;;;;14.00;nan;101019.78;5034261;28;20026;-68
2022/06/15 04:12:58;;;;;;;13.65;6.13;;;;;;;14.00;nan;101011.03;5050684;28;20044;-68
2022/06/15 04:15:23;;;;;;;16.83;6.07;;;;;;;14.18;nan;101023.34;5054230;28;20060;-67
2022/06/15 04:17:49;;;;;;;14.75;5.90;;;;;;;14.15;nan;101021.97;5054418;28;20471;-68
2022/06/15 04:20:36;;;;;;;11.68;6.28;;;;;;;14.08;nan;101010.69;5053428;28;20029;-68
2022/06/15 04:23:22;;;;;;;16.90;5.78;;;;;;;14.29;nan;101021.69;5054165;28;20033;-68
2022/06/15 04:26:09;;;;;;;12.90;5.88;;;;;;;14.18;nan;100997.66;5054087;28;20037;-68
2022/06/15 04:28:37;;;;;;;11.50;5.85;;;;;;;14.44;nan;101020.16;5053567;28;20029;-68
2022/06/15 04:31:03;;;;;;;10.67;5.87;;;;;;;14.46;nan;101010.13;5053959;28;20029;-70
2022/06/15 04:33:29;;;;;;;13.82;6.22;;;;;;;14.66;nan;101030.16;5054014;28;20269;-68
2022/06/15 04:35:55;;;;;;;21.80;7.35;;;;;;;14.66;nan;101011.59;5053817;28;20065;-68
2022/06/15 04:38:21;;;;;;;23.85;7.03;;;;;;;14.82;nan;101021.44;5053852;28;20033;-69
2022/06/15 04:40:46;;;;;;;17.20;6.25;;;;;;;14.89;nan;101019.44;5053806;28;20025;-69
2022/06/15 04:43:12;;;;;;;14.13;6.60;;;;;;;15.01;nan;101022.03;5035710;28;20037;-69
2022/06/15 04:45:38;;;;;;;16.90;6.25;;;;;;;15.15;nan;101032.34;5035515;28;20069;-69
2022/06/15 04:48:04;;;;;;;15.07;5.93;;;;;;;15.25;nan;101027.19;5053658;28;20364;-69
2022/06/15 04:50:29;;;;;;;12.00;6.15;;;;;;;15.35;nan;101034.50;5053588;28;20036;-69
2022/06/15 04:52:55;;;;;;;14.35;5.78;;;;;;;15.45;nan;101024.09;5053520;28;20040;-67
2022/06/15 04:55:23;;;;;;;14.20;6.10;;;;;;;15.57;nan;101024.00;5053207;28;20498;-67
2022/06/15 04:57:54;;;;;;;17.85;5.72;;;;;;;15.64;nan;101029.94;5053177;28;20128;-67
2022/06/15 05:00:20;;;;;;;10.80;5.30;;;;;;;15.55;nan;100995.03;5052261;28;20045;-70
2022/06/15 05:02:45;;;;;;;11.27;5.65;;;;;;;15.85;nan;101028.41;5051475;28;20037;-67
2022/06/15 05:05:11;;;;;;;20.20;5.78;;;;;;;15.99;nan;101034.16;5052889;28;20025;-67
2022/06/15 05:07:37;;;;;;;10.23;5.25;;;;;;;15.99;nan;101024.34;5043397;28;20492;-68
2022/06/15 05:10:04;;;;;;;15.52;5.97;;;;;;;16.12;nan;101034.63;5044744;28;20044;-68
2022/06/15 05:12:30;;;;;;;12.20;5.20;;;;;;;16.23;nan;101032.09;5041764;28;20053;-67
2022/06/15 05:14:55;;;;;;;10.05;5.13;;;;;;;16.19;nan;101026.47;5033138;28;20075;-68
2022/06/15 05:17:23;;;;;;;14.50;5.15;;;;;;;16.32;nan;101033.25;5033302;28;20025;-68
2022/06/15 05:19:48;;;;;;;10.80;5.07;;;;;;;16.37;nan;101033.31;5053110;28;20072;-67
2022/06/15 05:22:14;;;;;;;9.20;5.55;;;;;;;16.37;nan;101034.13;5051532;28;20087;-68
2022/06/15 05:24:40;;;;;;;8.57;4.30;;;;;;;16.42;nan;101014.78;5033503;28;20064;-68
2022/06/15 05:27:05;;;;;;;12.27;5.20;;;;;;;16.61;nan;101025.88;5032726;28;20412;-68
2022/06/15 05:29:31;;;;;;;11.25;4.72;;;;;;;16.61;nan;101020.56;5049356;28;20036;-69
2022/06/15 05:31:57;;;;;;;11.35;5.07;;;;;;;16.74;nan;101038.00;5052025;28;20025;-69
2022/06/15 05:34:23;;;;;;;10.35;4.50;;;;;;;16.84;nan;101029.34;5041820;28;20060;-69
2022/06/15 05:36:49;;;;;;;9.57;4.22;;;;;;;16.97;nan;101043.03;5039355;28;20039;-69
2022/06/15 05:39:15;;;;;;;9.50;4.40;;;;;;;17.06;nan;101030.09;5052493;28;20024;-69
2022/06/15 05:41:41;;;;;;;10.30;4.28;;;;;;;17.21;nan;101042.72;5052613;28;20425;-69
2022/06/15 05:44:10;;;;;;;19.80;4.22;;;;;;;17.33;nan;101042.56;5050016;28;20025;-69
2022/06/15 05:46:36;;;;;;;8.02;4.15;;;;;;;17.34;nan;101034.31;5052315;28;20029;-69
2022/06/15 05:49:03;;;;;;;9.73;3.92;;;;;;;17.55;nan;101048.59;5039885;28;20029;-69
2022/06/15 05:51:29;;;;;;;13.23;4.18;;;;;;;17.71;nan;101054.81;5044947;28;20026;-68
2022/06/15 05:53:55;;;;;;;11.20;3.90;;;;;;;17.81;nan;101052.28;5035076;28;20033;-69
2022/06/15 05:56:20;;;;;;;8.45;3.67;;;;;;;17.90;nan;101044.59;5044983;28;20045;-68
2022/06/15 05:58:47;;;;;;;10.02;3.88;;;;;;;17.93;nan;101041.41;5032678;28;20479;-69
2022/06/15 06:01:24;;;;;;;10.20;3.85;;;;;;;18.07;nan;101047.88;5029679;28;20034;-69
2022/06/15 06:03:50;;;;;;;12.15;3.38;;;;;;;18.14;nan;101050.31;5042009;28;20554;-69
2022/06/15 06:06:15;;;;;;;9.38;3.80;;;;;;;18.17;nan;101035.66;5050494;28;20061;-68
2022/06/15 06:08:40;;;;;;;11.13;3.90;;;;;;;18.31;nan;101050.09;5024854;28;20068;-69
2022/06/15 06:11:06;;;;;;;12.23;3.90;;;;;;;18.36;nan;101044.00;5031329;28;20061;-69
2022/06/15 06:13:31;;;;;;;10.15;3.50;;;;;;;18.52;nan;101055.53;5035323;28;20116;-70
2022/06/15 06:15:57;;;;;;;13.73;3.53;;;;;;;18.55;nan;101055.00;5034099;28;20032;-70
2022/06/15 06:18:26;;;;;;;9.70;3.70;;;;;;;18.51;nan;101041.41;5053040;28;20479;-70
2022/06/15 06:20:52;;;;;;;9.82;3.72;;;;;;;18.64;nan;101051.56;5056441;28;20025;-69
2022/06/15 06:23:18;;;;;;;8.88;2.85;;;;;;;18.69;nan;101054.25;5056055;28;20029;-70
2022/06/15 06:25:46;;;;;;;6.43;3.10;;;;;;;18.81;nan;101067.38;5056373;28;20103;-69
2022/06/15 06:28:32;;;;;;;6.32;2.85;;;;;;;18.90;nan;101065.00;5038116;28;20025;-70
2022/06/15 06:31:00;;;;;;;15.13;3.83;;;;;;;19.03;nan;101061.00;5056357;28;20025;-70
2022/06/15 06:33:28;;;;;;;8.70;2.85;;;;;;;19.08;nan;101067.19;5056185;28;20475;-70
2022/06/15 06:35:55;;;;;;;9.73;3.70;;;;;;;19.19;nan;101062.63;5056241;28;20033;-70
2022/06/15 06:38:21;;;;;;;12.45;2.85;;;;;;;19.23;nan;101055.69;5055743;28;20387;-70
2022/06/15 06:40:49;;;;;;;7.90;3.00;;;;;;;19.38;nan;101059.44;5056056;28;20044;-69
2022/06/15 06:43:14;;;;;;;5.28;3.10;;;;;;;19.44;nan;101053.00;5055896;28;20120;-69
2022/06/15 06:45:40;;;;;;;14.88;2.92;;;;;;;19.50;nan;101055.41;5055133;28;20089;-69
2022/06/15 06:48:06;;;;;;;6.00;3.20;;;;;;;19.51;nan;101040.19;5035584;28;20108;-69
2022/06/15 06:50:32;;;;;;;6.68;2.60;;;;;;;19.67;nan;101052.47;5035985;28;20503;-68
2022/06/15 06:52:57;;;;;;;5.07;2.35;;;;;;;19.71;nan;101050.09;5019246;28;20048;-68
2022/06/15 06:55:26;;;;;;;6.45;2.50;;;;;;;19.83;nan;101049.81;5037569;28;20091;-68
2022/06/15 06:57:56;;;;;;;6.55;2.17;;;;;;;19.89;nan;101060.19;5049174;28;20116;-68
2022/06/15 07:00:21;;;;;;;4.75;2.45;;;;;;;19.97;nan;101061.53;5035142;28;20148;-68
2022/06/15 07:02:47;;;;;;;4.65;2.00;;;;;;;20.00;nan;101052.16;5047970;28;20025;-68
2022/06/15 07:05:12;;;;;;;3.67;2.30;;;;;;;20.01;nan;101051.09;5034489;28;20113;-67
2022/06/15 07:07:38;;;;;;;8.07;2.33;;;;;;;20.19;nan;101050.50;5035531;28;20031;-68
2022/06/15 07:10:04;;;;;;;5.97;2.58;;;;;;;20.22;nan;101047.28;5037882;28;20108;-68
2022/06/15 07:12:29;;;;;;;8.05;2.40;;;;;;;20.29;nan;101044.31;5053193;28;20045;-68
2022/06/15 07:14:54;;;;;;;5.80;2.03;;;;;;;20.36;nan;101047.47;5054114;28;20033;-68
2022/06/15 07:17:20;;;;;;;5.93;1.98;;;;;;;20.38;nan;101053.38;5053665;28;20033;-70
2022/06/15 07:19:47;;;;;;;4.88;2.00;;;;;;;20.42;nan;101048.25;5053822;28;20040;-68
2022/06/15 07:22:13;;;;;;;8.07;2.22;;;;;;;20.49;nan;101049.53;5053598;28;20098;-68
2022/06/15 07:24:38;;;;;;;5.95;2.60;;;;;;;20.55;nan;101042.31;5053472;28;20487;-68
2022/06/15 07:27:04;;;;;;;8.90;2.50;;;;;;;20.65;nan;101049.50;5053871;28;20036;-67
2022/06/15 07:29:30;;;;;;;8.25;2.50;;;;;;;20.89;nan;101052.31;5053479;28;20037;-68
2022/06/15 07:31:56;;;;;;;3.80;1.83;;;;;;;20.93;nan;101032.75;5054061;28;20095;-68
2022/06/15 07:34:23;;;;;;;4.07;1.92;;;;;;;21.10;nan;101048.41;5035422;28;20062;-68
2022/06/15 07:36:49;;;;;;;6.70;1.90;;;;;;;21.26;nan;101059.78;5053798;28;20032;-68
2022/06/15 07:39:21;;;;;;;4.40;1.92;;;;;;;21.23;nan;101038.94;5053738;28;20124;-68
2022/06/15 07:41:47;;;;;;;7.93;3.10;;;;;;;21.40;nan;101054.63;5053766;28;20033;-68
2022/06/15 07:44:14;;;;;;;3.75;1.80;;;;;;;21.41;nan;101054.34;5053631;28;20052;-68
2022/06/15 07:46:39;;;;;;;6.13;1.73;;;;;;;21.37;nan;101042.56;5035592;28;20041;-68
2022/06/15 07:52:07;;;;;;;6.55;1.60;;;;;;;21.53;nan;101055.88;5053745;28;20026;-68
2022/06/15 07:54:32;;;;;;;5.85;1.50;;;;;;;21.55;nan;101057.19;5053231;28;20120;-68
2022/06/15 07:56:57;;;;;;;5.55;1.55;;;;;;;21.56;nan;101050.72;5053508;28;20033;-68
2022/06/15 07:59:23;;;;;;;5.60;1.40;;;;;;;21.63;nan;101055.75;5053547;28;20080;-68
2022/06/15 08:01:49;;;;;;;2.63;1.58;;;;;;;21.67;nan;101054.13;5053653;28;20041;-68
2022/06/15 08:04:15;;;;;;;5.65;1.63;;;;;;;21.71;nan;101054.34;5053231;28;20124;-67
2022/06/15 08:06:44;;;;;;;5.20;1.70;;;;;;;21.73;nan;101050.28;5053399;28;20048;-68
2022/06/15 08:09:13;;;;;;;2.58;1.30;;;;;;;21.71;nan;101039.03;5052068;28;20033;-68
2022/06/15 08:12:11;;;;;;;1.65;1.35;;;;;;;21.85;nan;101057.94;5010642;28;1175345;-67
2022/06/15 08:14:27;;;;;;;2.72;1.65;;;;;;;21.93;nan;101059.19;5053238;28;20041;-68
2022/06/15 08:16:52;;;;;;;4.22;1.67;;;;;;;21.97;nan;101061.03;5036196;28;20041;-68
2022/06/15 08:19:18;;;;;;;5.57;1.83;;;;;;;22.00;nan;101049.72;5036025;28;20040;-68
2022/06/15 08:21:43;;;;;;;3.35;1.23;;;;;;;22.02;nan;101046.75;5054067;28;20033;-68
2022/06/15 08:24:09;;;;;;;3.22;1.50;;;;;;;22.11;nan;101050.41;5053750;28;20032;-68
2022/06/15 08:26:37;;;;;;;4.07;1.42;;;;;;;22.18;nan;101058.13;5054150;28;20487;-68
2022/06/15 08:29:08;;;;;;;3.17;1.40;;;;;;;22.22;nan;101054.63;5054032;28;20111;-68
2022/06/15 08:31:36;;;;;;;2.78;1.70;;;;;;;22.20;nan;101048.72;5054184;28;20025;-68
2022/06/15 08:34:02;;;;;;;6.95;1.70;;;;;;;22.31;nan;101057.44;5053808;28;20533;-68
2022/06/15 08:36:27;;;;;;;6.95;2.22;;;;;;;22.36;nan;101060.06;5053829;28;20037;-68
2022/06/15 08:38:52;;;;;;;2.40;1.50;;;;;;;22.33;nan;101039.16;5053773;28;20032;-68
2022/06/15 08:41:36;;;;;;;8.02;1.65;;;;;;;22.54;nan;101063.88;5052950;28;20029;-67
2022/06/15 08:44:13;;;;;;;3.42;1.70;;;;;;;22.55;nan;101061.97;5053644;28;20539;-68
2022/06/15 08:47:00;;;;;;;3.03;1.20;;;;;;;22.57;nan;101063.28;5053697;28;20037;-68
2022/06/15 08:50:13;;;;;;;7.55;1.25;;;;;;;22.64;nan;101066.41;5053646;28;20033;-68
2022/06/15 08:52:45;;;;;;;4.93;1.30;;;;;;;22.70;nan;101072.53;5044910;28;20883;-68
2022/06/15 08:55:29;;;;;;;5.72;1.20;;;;;;;22.77;nan;101064.91;5053122;28;20418;-68
2022/06/15 08:57:58;;;;;;;2.03;1.33;;;;;;;22.82;nan;101069.38;5051878;28;20390;-68
2022/06/15 09:00:28;;;;;;;2.80;1.30;;;;;;;22.88;nan;101052.09;5052983;28;20086;-67
2022/06/15 09:03:00;;;;;;;5.60;1.65;;;;;;;22.93;nan;101060.88;5053438;28;20033;-67
2022/06/15 09:05:42;;;;;;;2.97;1.13;;;;;;;23.01;nan;101054.09;5053437;28;20033;-68
2022/06/15 09:08:27;;;;;;;3.25;1.30;;;;;;;23.06;nan;101056.69;5053412;28;20059;-68
2022/06/15 09:11:08;;;;;;;4.30;1.20;;;;;;;23.12;nan;101062.78;5053166;28;20037;-68
2022/06/15 09:13:47;;;;;;;5.78;1.60;;;;;;;23.12;nan;101058.19;5035141;28;20041;-68
2022/06/15 09:16:27;;;;;;;5.53;1.90;;;;;;;23.22;nan;101053.75;5052530;28;20033;-68
2022/06/15 09:19:08;;;;;;;2.15;1.20;;;;;;;23.28;nan;101055.28;5051384;28;20032;-68
2022/06/15 09:22:00;;;;;;;2.38;1.15;;;;;;;23.28;nan;101055.28;5052678;28;20036;-68
2022/06/15 09:24:46;;;;;;;4.82;1.58;;;;;;;23.36;nan;101058.06;5038212;28;20496;-68
2022/06/15 09:27:21;;;;;;;3.40;1.40;;;;;;;23.44;nan;101047.75;5034654;28;20051;-68
2022/06/15 09:30:03;;;;;;;2.92;1.00;;;;;;;23.49;nan;101048.47;5053121;28;20119;-68
2022/06/15 09:32:35;;;;;;;2.65;1.23;;;;;;;23.51;nan;101057.03;5052435;28;20021;-68
2022/06/15 09:35:10;;;;;;;3.00;1.25;;;;;;;23.53;nan;101054.03;5052827;28;20025;-68
2022/06/15 09:37:40;;;;;;;2.50;1.40;;;;;;;23.51;nan;101048.16;5052862;28;20040;-68
2022/06/15 09:40:07;;;;;;;1.83;1.40;;;;;;;23.54;nan;101047.59;5052705;28;20482;-68
2022/06/15 09:42:57;;;;;;;2.38;1.40;;;;;;;23.56;nan;101043.50;5052333;28;20367;-68
2022/06/15 09:46:04;;;;;;;4.97;1.20;;;;;;;23.63;nan;101045.78;5052678;28;20043;-68
2022/06/15 09:48:52;;;;;;;4.35;1.20;;;;;;;23.63;nan;101039.59;5052588;28;20036;-68
2022/06/15 09:51:53;;;;;;;3.05;1.10;;;;;;;23.69;nan;101046.50;5052708;28;20021;-68
2022/06/15 09:54:37;;;;;;;3.15;1.10;;;;;;;23.76;nan;101049.63;5010623;28;20045;-68
2022/06/15 09:57:02;;;;;;;2.83;0.95;;;;;;;23.74;nan;101044.53;5052598;28;20120;-68
2022/06/15 09:59:33;;;;;;;2.55;1.00;;;;;;;23.68;nan;101029.56;5034389;28;20148;-68
2022/06/15 10:02:01;;;;;;;2.15;1.00;;;;;;;23.72;nan;101030.56;5052556;28;20029;-68
2022/06/15 10:04:32;;;;;;;3.28;1.20;;;;;;;23.92;nan;101040.19;5052182;28;20541;-68
2022/06/15 10:07:07;;;;;;;2.78;1.10;;;;;;;23.96;nan;101033.06;5052226;28;20037;-68
2022/06/15 10:09:45;;;;;;;5.75;1.17;;;;;;;24.02;nan;101033.78;5052274;28;20387;-68
2022/06/15 10:15:18;;;;;;;1.92;1.05;;;;;;;24.14;nan;101025.22;5051969;28;20395;-68
2022/06/15 10:17:48;;;;;;;3.78;1.10;;;;;;;24.23;nan;101031.50;5052369;28;20071;-68
2022/06/15 10:20:21;;;;;;;6.57;1.33;;;;;;;24.27;nan;101029.75;5034021;28;20029;-68
2022/06/15 10:22:53;;;;;;;2.55;1.20;;;;;;;24.29;nan;101024.88;5052294;28;20044;-68
2022/06/15 10:25:19;;;;;;;3.40;1.50;;;;;;;24.32;nan;101023.47;5052015;28;20063;-68
2022/06/15 10:27:45;;;;;;;4.47;1.17;;;;;;;24.34;nan;101013.22;5052348;28;20033;-68
2022/06/15 10:30:10;;;;;;;2.78;1.02;;;;;;;24.42;nan;101018.69;5033927;28;20058;-68
2022/06/15 10:32:39;;;;;;;2.55;1.10;;;;;;;24.47;nan;101017.81;5052041;28;20025;-68
2022/06/15 10:35:13;;;;;;;;;;;;;;;24.54;nan;101014.69;5052612;28;20120;-68
2022/06/15 10:37:48;;;;;;;3.13;1.17;;;;;;;24.60;nan;101018.84;5052295;28;19942;-68
2022/06/15 10:40:19;;;;;;;6.13;1.70;;;;;;;24.64;nan;101006.38;5052003;28;20033;-68
2022/06/15 10:43:14;;;;;;;2.85;1.05;;;;;;;24.71;nan;101009.44;5052056;28;20124;-67
2022/06/15 10:45:53;;;;;;;5.30;1.17;;;;;;;24.78;nan;101009.81;5033993;28;20128;-68
2022/06/15 10:48:20;;;;;;;2.05;1.00;;;;;;;24.78;nan;101000.91;5052044;28;20025;-68
2022/06/15 10:51:12;;;;;;;2.22;1.10;;;;;;;24.80;nan;101001.41;5051926;28;20387;-68
2022/06/15 10:53:41;;;;;;;3.20;1.00;;;;;;;24.82;nan;101005.41;5051701;28;20052;-68
2022/06/15 11:02:06;;;;;;;;;;;;;;;25.00;nan;101002.84;5052441;28;20029;-68
2022/06/15 11:04:55;;;;;;;3.65;1.08;;;;;;;25.06;nan;101001.59;5052844;28;20366;-68
2022/06/15 11:07:20;;;;;;;4.93;1.10;;;;;;;25.10;nan;100996.41;5055741;28;20072;-68
2022/06/15 11:09:54;;;;;;;2.30;1.00;;;;;;;25.15;nan;101007.84;5037455;28;20530;-68
2022/06/15 11:12:23;;;;;;;4.03;1.10;;;;;;;25.18;nan;100999.16;5037128;28;20403;-68
2022/06/15 11:15:02;;;;;;;5.28;1.30;;;;;;;25.18;nan;100987.59;5055588;28;20032;-67
2022/06/15 11:20:43;;;;;;;1.80;1.27;;;;;;;25.37;nan;100988.16;5053820;28;20064;-68
2022/06/15 11:23:19;;;;;;;5.63;1.55;;;;;;;25.36;nan;100986.56;5054902;28;20067;-68
2022/06/15 11:28:56;;;;;;;4.95;1.50;;;;;;;25.37;nan;100982.75;5054951;28;20088;-67
2022/06/15 11:31:26;;;;;;;1.15;1.00;;;;;;;25.36;nan;100977.69;5036749;28;20079;-68
2022/06/15 11:34:11;;;;;;;1.50;0.98;;;;;;;25.45;nan;100975.81;5037022;28;20132;-67
2022/06/15 11:36:48;;;;;;;1.27;1.00;;;;;;;25.48;nan;100967.13;5054892;28;20110;-67
2022/06/15 11:39:25;;;;;;;3.40;1.20;;;;;;;25.61;nan;100976.19;5054712;28;20025;-67
2022/06/15 11:41:54;;;;;;;6.80;1.77;;;;;;;25.50;nan;100962.22;5054922;28;20067;-68
2022/06/15 11:44:24;;;;;;;4.75;2.40;;;;;;;25.49;nan;100962.50;5054854;28;20509;-67
2022/06/15 11:46:55;;;;;;;3.33;1.13;;;;;;;25.73;nan;100972.91;5054908;28;20044;-68
2022/06/15 11:49:50;;;;;;;7.63;1.20;;;;;;;25.82;nan;100976.44;5054922;28;20037;-67
2022/06/15 11:52:42;;;;;;;1.30;1.20;;;;;;;25.86;nan;100963.94;4973247;28;20046;-68
2022/06/15 11:55:22;;;;;;;2.50;1.20;;;;;;;25.97;nan;100964.41;4955995;28;20038;-68
2022/06/15 11:57:50;;;;;;;10.82;2.20;;;;;;;26.06;nan;100965.22;4973730;28;20038;-68
2022/06/15 12:00:28;;;;;;;1.43;1.13;;;;;;;26.18;nan;100972.72;4973442;28;20039;-68
2022/06/15 12:03:18;;;;;;;4.32;1.42;;;;;;;26.29;nan;100974.78;4973468;28;20042;-68
2022/06/15 12:06:18;;;;;;;2.15;1.20;;;;;;;26.31;nan;100971.75;4957501;28;20370;-68
2022/06/15 12:08:55;;;;;;;2.70;1.50;;;;;;;26.48;nan;100976.34;4973512;28;20034;-68
2022/06/15 12:14:50;;;;;;;2.10;1.30;;;;;;;26.57;nan;100969.06;4973146;28;20047;-68
2022/06/15 12:17:27;;;;;;;2.10;1.20;;;;;;;26.66;nan;100952.88;4956243;28;20483;-66
2022/06/15 12:20:02;;;;;;;2.15;1.10;;;;;;;26.72;nan;100956.97;4973132;28;20041;-68
2022/06/15 12:22:36;;;;;;;2.33;1.00;;;;;;;26.83;nan;100960.16;4971725;28;20162;-68
2022/06/15 12:25:15;;;;;;;8.30;2.20;;;;;;;26.78;nan;100946.81;4970942;28;20035;-68
2022/06/15 12:27:46;;;;;;;2.85;1.15;;;;;;;26.92;nan;100955.53;4971925;28;20034;-68
2022/06/15 12:30:42;;;;;;;4.15;1.17;;;;;;;26.95;nan;100952.16;5028716;28;20037;-67
2022/06/15 12:33:16;;;;;;;2.15;1.10;;;;;;;27.01;nan;100950.06;5034118;28;20030;-68
2022/06/15 12:36:03;;;;;;;1.98;0.90;;;;;;;27.08;nan;100939.56;5034166;28;20029;-68
2022/06/15 12:38:37;;;;;;;1.85;1.27;;;;;;;27.17;nan;100933.00;5033701;28;20514;-68
2022/06/15 12:42:09;;;;;;;6.43;1.17;;;;;;;27.17;nan;100919.47;5031755;28;20069;-68
2022/06/15 12:43:57;;;;;;;1.95;1.00;;;;;;;27.25;nan;100923.31;5033192;28;20037;-68
2022/06/15 12:46:25;;;;;;;1.88;1.30;;;;;;;27.25;nan;100920.63;5033713;28;20025;-66
2022/06/15 12:49:09;;;;;;;3.45;1.30;;;;;;;27.31;nan;100935.53;5033737;28;20080;-66
2022/06/15 12:51:46;;;;;;;1.90;1.20;;;;;;;27.34;nan;100926.78;5032152;28;20057;-67
2022/06/15 12:54:36;;;;;;;4.45;1.20;;;;;;;27.40;nan;100923.91;5033352;28;20033;-66
2022/06/15 12:57:38;;;;;;;5.38;1.33;;;;;;;27.38;nan;100931.53;5033603;28;20033;-67
2022/06/15 13:00:19;;;;;;;3.13;1.02;;;;;;;27.47;nan;100926.88;5033536;28;20107;-67